Time;durP1;ratioP1;P1;durP2;ratioP2;P2;SDS_P1;SDS_P2;PMS_P1;PMS_P2;Temp;Humidity;BMP_temperature;BMP_pressure;BME280_temperature;BME280_humidity;BME280_pressure;Samples;Min_cycle;Max_cycle;Signal;HPM_P1;HPM_P2
2024/01/04 00:00:25;;;;;;;2.78;1.40;;;7.20;99.90;;;;;;5061081;28;20047;-51
2024/01/04 00:02:51;;;;;;;4.18;0.98;;;7.20;99.90;;;;;;5060946;28;20368;-48
2024/01/04 00:05:18;;;;;;;1.55;0.60;;;7.30;99.90;;;;;;5058104;28;20044;-49
2024/01/04 00:07:44;;;;;;;5.57;0.95;;;7.30;99.90;;;;;;5058590;28;20064;-47
2024/01/04 00:10:10;;;;;;;4.28;1.08;;;7.20;99.90;;;;;;5061469;28;20076;-51
2024/01/04 00:12:36;;;;;;;7.13;0.98;;;7.30;99.90;;;;;;5058015;28;20639;-49
2024/01/04 00:15:03;;;;;;;5.03;0.55;;;7.20;99.90;;;;;;5059912;28;20037;-47
2024/01/04 00:17:32;;;;;;;3.85;0.60;;;7.20;99.90;;;;;;5050082;28;20099;-49
2024/01/04 00:19:58;;;;;;;5.43;1.10;;;7.30;99.90;;;;;;5059292;28;20044;-48
2024/01/04 00:22:24;;;;;;;5.47;0.47;;;7.30;99.90;;;;;;5057554;28;20112;-47
2024/01/04 00:24:50;;;;;;;6.70;1.42;;;7.20;99.90;;;;;;5054670;28;20116;-50
2024/01/04 00:27:16;;;;;;;1.85;0.35;;;7.20;99.90;;;;;;5052493;28;20402;-51
2024/01/04 00:29:45;;;;;;;3.25;0.98;;;7.10;99.90;;;;;;5054277;28;20050;-47
2024/01/04 00:32:10;;;;;;;5.80;0.70;;;7.10;99.90;;;;;;5059266;28;20105;-47
2024/01/04 00:34:36;;;;;;;2.97;0.55;;;7.20;99.90;;;;;;5061429;28;20044;-47
2024/01/04 00:37:04;;;;;;;1.20;0.40;;;7.20;99.90;;;;;;5060486;28;20059;-51
2024/01/04 00:39:30;;;;;;;7.30;0.90;;;7.10;99.90;;;;;;5058123;28;20056;-48
2024/01/04 00:41:57;;;;;;;3.83;0.90;;;7.10;99.90;;;;;;5053135;28;20032;-51
2024/01/04 00:44:23;;;;;;;1.50;0.50;;;7.10;99.90;;;;;;5055848;28;20036;-49
2024/01/04 00:46:49;;;;;;;3.35;0.60;;;7.10;99.90;;;;;;5055682;28;20380;-49
2024/01/04 00:49:14;;;;;;;3.83;1.05;;;7.10;99.90;;;;;;5059915;28;20048;-48
2024/01/04 00:51:41;;;;;;;5.78;0.77;;;7.00;99.90;;;;;;5058578;28;20336;-48
2024/01/04 00:54:06;;;;;;;3.25;0.73;;;7.00;99.90;;;;;;5058307;28;20525;-51
2024/01/04 00:56:33;;;;;;;2.53;0.60;;;7.10;99.90;;;;;;5056365;28;20048;-49
2024/01/04 00:59:00;;;;;;;4.25;0.55;;;7.00;99.90;;;;;;5060537;28;20423;-49
2024/01/04 01:01:26;;;;;;;6.60;0.70;;;7.00;99.90;;;;;;5036757;28;20036;-49
2024/01/04 01:03:52;;;;;;;2.03;0.50;;;6.90;99.90;;;;;;5061318;28;20522;-49
2024/01/04 01:06:18;;;;;;;5.97;0.75;;;6.90;99.90;;;;;;5065550;28;20116;-48
2024/01/04 01:08:44;;;;;;;4.57;0.70;;;6.80;99.90;;;;;;5065412;28;20130;-48
2024/01/04 01:11:10;;;;;;;3.42;0.70;;;7.00;99.90;;;;;;5065097;28;20048;-49
2024/01/04 01:13:35;;;;;;;4.07;0.63;;;7.00;99.90;;;;;;5062889;28;20041;-48
2024/01/04 01:16:01;;;;;;;2.55;0.77;;;6.90;99.90;;;;;;5066354;28;20044;-49
2024/01/04 01:18:28;;;;;;;6.60;0.95;;;6.80;99.90;;;;;;5062274;28;20075;-48
2024/01/04 01:20:57;;;;;;;5.95;0.70;;;6.80;99.90;;;;;;5064828;28;20093;-47
2024/01/04 01:23:23;;;;;;;3.35;0.85;;;6.80;99.90;;;;;;5060742;28;20041;-48
2024/01/04 01:25:49;;;;;;;1.92;0.63;;;6.80;99.90;;;;;;5064469;28;20583;-50
2024/01/04 01:28:14;;;;;;;4.90;0.85;;;6.80;99.90;;;;;;5048384;28;20461;-47
2024/01/04 01:30:40;;;;;;;6.40;1.27;;;6.80;99.90;;;;;;5063387;28;20486;-47
2024/01/04 01:33:06;;;;;;;7.03;1.88;;;6.80;99.90;;;;;;5060224;28;20135;-51
2024/01/04 01:35:31;;;;;;;6.47;2.08;;;6.80;99.90;;;;;;5064556;28;20053;-49
2024/01/04 01:37:57;;;;;;;4.18;1.25;;;6.80;99.90;;;;;;5059330;28;20036;-47
2024/01/04 01:40:23;;;;;;;2.63;1.10;;;6.70;99.90;;;;;;5064646;28;20040;-51
2024/01/04 01:42:49;;;;;;;6.32;1.52;;;6.60;99.90;;;;;;5059976;28;20039;-50
2024/01/04 01:45:20;;;;;;;4.80;1.70;;;6.50;99.90;;;;;;5062136;28;20029;-47
2024/01/04 01:47:47;;;;;;;5.18;2.08;;;6.40;99.90;;;;;;5059627;28;20059;-48
2024/01/04 01:50:18;;;;;;;6.35;3.47;;;6.40;99.90;;;;;;5062787;28;20565;-48
2024/01/04 01:52:44;;;;;;;8.77;3.40;;;6.50;99.90;;;;;;5063497;28;20478;-49
2024/01/04 01:55:11;;;;;;;9.95;3.13;;;6.50;99.90;;;;;;5064099;28;20503;-52
2024/01/04 01:57:37;;;;;;;3.63;2.45;;;6.50;99.90;;;;;;5061976;28;20490;-48
2024/01/04 02:00:04;;;;;;;8.05;2.17;;;6.50;99.90;;;;;;5063730;28;20044;-50
2024/01/04 02:02:30;;;;;;;5.53;1.70;;;6.40;99.90;;;;;;5061154;28;20152;-48
2024/01/04 02:04:56;;;;;;;1.77;0.77;;;6.40;99.90;;;;;;5058580;28;20127;-47
2024/01/04 02:07:23;;;;;;;1.80;0.93;;;6.40;99.90;;;;;;5061788;28;20178;-49
2024/01/04 02:09:49;;;;;;;3.47;0.85;;;6.40;99.90;;;;;;5062562;28;20486;-51
2024/01/04 02:12:15;;;;;;;3.80;0.63;;;6.40;99.90;;;;;;5062900;28;20055;-48
2024/01/04 02:14:41;;;;;;;2.92;0.85;;;6.40;99.90;;;;;;5057754;28;20063;-47
2024/01/04 02:17:08;;;;;;;7.40;2.75;;;6.30;99.90;;;;;;5058288;28;20044;-47
2024/01/04 02:19:34;;;;;;;7.38;2.17;;;6.30;99.90;;;;;;5062213;28;20044;-50
2024/01/04 02:22:00;;;;;;;4.95;2.10;;;6.20;99.90;;;;;;5064285;28;20561;-49
2024/01/04 02:24:26;;;;;;;4.65;2.65;;;6.10;99.90;;;;;;5056606;28;20469;-48
2024/01/04 02:26:52;;;;;;;7.45;3.10;;;6.10;99.90;;;;;;5062935;28;20076;-48
2024/01/04 02:29:18;;;;;;;5.80;2.78;;;6.10;99.90;;;;;;5062191;28;20514;-49
2024/01/04 02:31:45;;;;;;;3.83;1.75;;;6.00;99.90;;;;;;5063312;28;20040;-48
2024/01/04 02:34:11;;;;;;;2.17;0.77;;;6.00;99.90;;;;;;5059282;28;20055;-48
2024/01/04 02:36:37;;;;;;;3.45;0.60;;;6.00;99.90;;;;;;5062712;28;20056;-52
2024/01/04 02:39:02;;;;;;;2.13;0.52;;;6.00;99.90;;;;;;5059536;28;20029;-47
2024/01/04 02:41:28;;;;;;;0.70;0.60;;;6.00;99.90;;;;;;5060455;28;20047;-49
2024/01/04 02:43:54;;;;;;;3.80;0.75;;;6.00;99.90;;;;;;5063026;28;20070;-49
2024/01/04 02:46:19;;;;;;;2.92;0.63;;;6.00;99.90;;;;;;5060665;28;20737;-48
2024/01/04 02:48:45;;;;;;;5.43;0.80;;;5.90;99.90;;;;;;5062287;28;20048;-47
2024/01/04 02:51:11;;;;;;;3.08;0.80;;;5.80;99.90;;;;;;5061021;28;20376;-49
2024/01/04 02:53:37;;;;;;;1.98;0.65;;;5.80;99.90;;;;;;5062307;28;20388;-52
2024/01/04 02:56:04;;;;;;;1.13;0.45;;;5.90;99.90;;;;;;5060966;28;20036;-49
2024/01/04 02:58:30;;;;;;;0.73;0.50;;;5.90;99.90;;;;;;5060935;28;20087;-48
2024/01/04 03:00:56;;;;;;;1.95;0.70;;;5.80;99.90;;;;;;5061673;28;20139;-47
2024/01/04 03:03:21;;;;;;;2.72;1.05;;;5.80;99.90;;;;;;5060910;28;20057;-51
2024/01/04 03:05:47;;;;;;;1.73;0.70;;;5.80;99.90;;;;;;5061464;28;20113;-50
2024/01/04 03:08:14;;;;;;;2.72;0.93;;;5.80;99.90;;;;;;5061052;28;20041;-47
2024/01/04 03:10:40;;;;;;;2.00;0.80;;;5.80;99.90;;;;;;5057536;28;20111;-53
2024/01/04 03:13:07;;;;;;;5.97;0.82;;;5.80;99.90;;;;;;5048715;28;20044;-49
2024/01/04 03:15:32;;;;;;;2.25;0.88;;;5.90;99.90;;;;;;5059156;28;20050;-46
2024/01/04 03:17:58;;;;;;;3.60;0.70;;;5.80;99.90;;;;;;5061302;28;20032;-50
2024/01/04 03:20:24;;;;;;;2.45;0.65;;;5.90;99.90;;;;;;5053948;28;20044;-50
2024/01/04 03:22:50;;;;;;;3.03;1.05;;;5.90;99.90;;;;;;5058444;28;20319;-47
2024/01/04 03:25:16;;;;;;;8.88;1.50;;;5.80;99.90;;;;;;5061709;28;20123;-48
2024/01/04 03:27:43;;;;;;;4.90;0.80;;;5.90;99.90;;;;;;5016802;28;1137581;-49
2024/01/04 03:30:10;;;;;;;3.78;1.20;;;5.90;99.90;;;;;;5062384;28;20091;-48
2024/01/04 03:32:36;;;;;;;2.22;0.70;;;5.90;99.90;;;;;;5061977;28;20190;-49
2024/01/04 03:35:04;;;;;;;2.92;0.70;;;5.90;99.90;;;;;;5054533;28;20554;-50
2024/01/04 03:37:30;;;;;;;2.30;0.75;;;5.90;99.90;;;;;;5056626;28;20589;-50
2024/01/04 03:39:56;;;;;;;3.70;0.63;;;5.90;99.90;;;;;;5062514;28;20033;-51
2024/01/04 03:42:22;;;;;;;2.38;0.63;;;5.80;99.90;;;;;;5056424;28;20275;-51
2024/01/04 03:44:47;;;;;;;3.90;0.65;;;5.80;99.90;;;;;;5055981;28;20032;-49
2024/01/04 03:47:13;;;;;;;6.45;0.80;;;5.80;99.90;;;;;;5058711;28;20086;-48
2024/01/04 03:49:39;;;;;;;6.03;0.98;;;5.90;99.90;;;;;;5062587;28;20507;-48
2024/01/04 03:52:05;;;;;;;1.77;0.52;;;5.90;99.90;;;;;;5060057;28;20036;-47
2024/01/04 03:54:31;;;;;;;3.95;0.75;;;5.80;99.90;;;;;;5057383;28;20067;-51
2024/01/04 03:56:57;;;;;;;4.22;1.25;;;5.70;99.90;;;;;;5055697;28;20335;-51
2024/01/04 03:59:23;;;;;;;3.95;2.08;;;5.80;99.90;;;;;;5058862;28;20042;-50
2024/01/04 04:01:48;;;;;;;3.47;2.17;;;5.80;99.90;;;;;;5058069;28;20040;-49
2024/01/04 04:04:15;;;;;;;6.95;2.35;;;5.80;99.90;;;;;;5057492;28;20139;-47
2024/01/04 04:06:41;;;;;;;6.35;3.47;;;5.90;99.90;;;;;;5059069;28;20036;-47
2024/01/04 04:09:07;;;;;;;6.50;3.40;;;5.80;99.90;;;;;;5050443;28;20040;-48
2024/01/04 04:11:33;;;;;;;4.55;2.70;;;5.80;99.90;;;;;;5058831;28;20055;-48
2024/01/04 04:13:59;;;;;;;3.47;1.30;;;5.70;99.90;;;;;;5059948;28;20040;-48
2024/01/04 04:16:25;;;;;;;4.10;1.02;;;5.70;99.90;;;;;;5061009;28;20040;-48
2024/01/04 04:18:51;;;;;;;1.90;0.75;;;5.60;99.90;;;;;;5056038;28;20211;-47
2024/01/04 04:21:20;;;;;;;3.33;1.02;;;5.60;99.90;;;;;;5058403;28;20099;-50
2024/01/04 04:23:49;;;;;;;1.98;0.80;;;5.60;99.90;;;;;;5050119;28;20045;-48
2024/01/04 04:26:19;;;;;;;8.75;1.27;;;5.60;99.90;;;;;;5051214;28;20040;-48
2024/01/04 04:28:45;;;;;;;4.05;0.95;;;5.60;99.90;;;;;;5059516;28;20071;-47
2024/01/04 04:31:14;;;;;;;5.10;0.90;;;5.60;99.90;;;;;;5062021;28;20120;-49
2024/01/04 04:33:40;;;;;;;6.78;0.93;;;5.60;99.90;;;;;;5061420;28;20071;-52
2024/01/04 04:36:07;;;;;;;4.07;0.60;;;5.50;99.90;;;;;;5056587;28;20089;-47
2024/01/04 04:38:36;;;;;;;4.78;1.55;;;5.50;99.90;;;;;;5058530;28;20427;-48
2024/01/04 04:41:03;;;;;;;;;;;5.50;99.90;;;;;;5059022;28;20062;-48
2024/01/04 04:43:29;;;;;;;5.22;3.40;;;5.50;99.90;;;;;;5061186;28;19935;-50
2024/01/04 04:45:56;;;;;;;2.58;1.40;;;5.50;99.90;;;;;;5061373;28;20033;-48
2024/01/04 04:48:23;;;;;;;3.08;1.63;;;5.60;99.90;;;;;;5059072;28;20383;-48
2024/01/04 04:50:52;;;;;;;3.20;1.08;;;5.60;99.90;;;;;;5059982;28;20071;-51
2024/01/04 04:53:18;;;;;;;4.57;1.80;;;5.60;99.90;;;;;;5057943;28;20040;-51
2024/01/04 04:55:44;;;;;;;6.07;1.40;;;5.60;99.90;;;;;;5060658;28;20223;-52
2024/01/04 04:58:10;;;;;;;3.58;1.73;;;5.60;99.90;;;;;;5059518;28;20039;-47
2024/01/04 05:00:36;;;;;;;4.38;2.38;;;5.60;99.90;;;;;;5051769;28;20040;-51
2024/01/04 05:03:02;;;;;;;6.00;2.22;;;5.60;99.90;;;;;;5055447;28;20033;-47
2024/01/04 05:05:28;;;;;;;5.20;1.90;;;5.60;99.90;;;;;;5055892;28;20395;-51
2024/01/04 05:07:54;;;;;;;2.47;0.88;;;5.60;99.90;;;;;;5060927;28;20035;-48
2024/01/04 05:10:20;;;;;;;6.38;0.70;;;5.50;99.90;;;;;;5053091;28;20114;-48
2024/01/04 05:12:46;;;;;;;1.63;0.60;;;5.50;99.90;;;;;;5054082;28;20040;-48
2024/01/04 05:15:11;;;;;;;3.00;0.80;;;5.40;99.90;;;;;;5058285;28;20093;-51
2024/01/04 05:17:37;;;;;;;4.20;0.85;;;5.40;99.90;;;;;;5055640;28;20041;-50
2024/01/04 05:20:04;;;;;;;3.30;0.80;;;5.40;99.90;;;;;;5060526;28;20135;-48
2024/01/04 05:22:30;;;;;;;2.08;0.50;;;5.30;99.90;;;;;;5057580;28;20751;-47
2024/01/04 05:24:56;;;;;;;3.75;1.15;;;5.20;99.90;;;;;;5058052;28;20464;-47
2024/01/04 05:27:22;;;;;;;5.15;0.77;;;5.20;99.90;;;;;;5060275;28;20488;-49
2024/01/04 05:29:47;;;;;;;3.10;0.75;;;5.20;99.90;;;;;;5057986;28;20352;-48
2024/01/04 05:32:13;;;;;;;6.40;1.13;;;5.20;99.90;;;;;;5051654;28;20067;-47
2024/01/04 05:34:39;;;;;;;3.08;0.85;;;5.10;99.90;;;;;;5061122;28;20044;-49
2024/01/04 05:37:05;;;;;;;1.95;0.60;;;5.10;99.90;;;;;;5060917;28;20071;-47
2024/01/04 05:39:30;;;;;;;1.90;0.75;;;5.10;99.90;;;;;;5061159;28;20386;-49
2024/01/04 05:41:56;;;;;;;6.38;1.15;;;5.10;99.90;;;;;;5057262;28;20043;-48
2024/01/04 05:44:22;;;;;;;3.63;0.70;;;5.10;99.90;;;;;;5056535;28;20460;-48
2024/01/04 05:46:48;;;;;;;4.25;1.33;;;5.10;99.90;;;;;;5061253;28;20691;-48
2024/01/04 05:49:14;;;;;;;4.32;1.60;;;5.20;99.90;;;;;;5064255;28;20048;-48
2024/01/04 05:51:40;;;;;;;8.20;2.50;;;5.20;99.90;;;;;;5064570;28;20326;-50
2024/01/04 05:54:06;;;;;;;6.45;2.55;;;5.20;99.90;;;;;;5059800;28;20055;-48
2024/01/04 05:56:32;;;;;;;5.82;2.53;;;5.20;99.90;;;;;;5066200;28;20044;-48
2024/01/04 05:58:58;;;;;;;4.93;2.40;;;5.20;99.90;;;;;;5063953;28;20045;-52
2024/01/04 06:01:23;;;;;;;5.13;1.40;;;5.20;99.90;;;;;;5060597;28;20048;-51
2024/01/04 06:03:49;;;;;;;4.28;0.90;;;5.20;99.90;;;;;;5061137;28;20040;-47
2024/01/04 06:06:15;;;;;;;2.83;0.80;;;5.20;99.90;;;;;;5061547;28;20032;-51
2024/01/04 06:08:42;;;;;;;2.25;0.50;;;5.20;99.90;;;;;;5058096;28;20043;-48
2024/01/04 06:11:09;;;;;;;2.72;0.80;;;5.20;99.90;;;;;;5060454;28;20036;-51
2024/01/04 06:13:35;;;;;;;1.65;0.70;;;5.10;99.90;;;;;;5055143;28;20033;-47
2024/01/04 06:16:05;;;;;;;2.50;0.47;;;5.10;99.90;;;;;;5060888;28;20498;-49
2024/01/04 06:18:31;;;;;;;4.28;0.70;;;5.00;99.90;;;;;;5058207;28;20040;-50
2024/01/04 06:20:57;;;;;;;1.75;0.55;;;4.90;99.90;;;;;;5061845;28;20337;-50
2024/01/04 06:23:23;;;;;;;1.95;0.60;;;4.90;99.90;;;;;;5062151;28;20037;-51
2024/01/04 06:25:48;;;;;;;4.35;0.63;;;5.00;99.90;;;;;;5060160;28;20044;-46
2024/01/04 06:28:14;;;;;;;3.05;0.70;;;4.90;99.90;;;;;;5064394;28;20036;-50
2024/01/04 06:30:40;;;;;;;3.28;0.50;;;4.90;99.90;;;;;;5060792;28;20063;-49
2024/01/04 06:33:06;;;;;;;1.33;0.80;;;4.80;99.90;;;;;;5061828;28;20040;-50
2024/01/04 06:35:31;;;;;;;1.88;0.57;;;4.80;99.90;;;;;;5059812;28;20048;-48
2024/01/04 06:37:58;;;;;;;4.60;0.80;;;4.80;99.90;;;;;;5056767;28;20036;-48
2024/01/04 06:40:24;;;;;;;1.83;0.70;;;4.80;99.90;;;;;;5062563;28;20049;-48
2024/01/04 06:42:55;;;;;;;3.25;0.82;;;4.70;99.90;;;;;;5061709;28;20514;-47
2024/01/04 06:45:24;;;;;;;2.90;0.50;;;4.70;99.90;;;;;;5063452;28;20341;-50
2024/01/04 06:47:50;;;;;;;4.18;0.77;;;4.70;99.90;;;;;;5059288;28;20225;-48
2024/01/04 06:50:17;;;;;;;3.70;0.70;;;4.70;99.90;;;;;;5057453;28;20040;-47
2024/01/04 06:52:43;;;;;;;4.03;0.75;;;4.70;99.90;;;;;;5058710;28;20048;-47
2024/01/04 06:55:10;;;;;;;3.15;0.75;;;4.80;99.90;;;;;;5059177;28;20036;-47
2024/01/04 06:57:35;;;;;;;6.13;0.80;;;4.70;99.90;;;;;;5062913;28;20048;-50
2024/01/04 07:00:01;;;;;;;2.25;0.52;;;4.70;99.90;;;;;;5061090;28;20082;-48
2024/01/04 07:02:27;;;;;;;1.10;0.60;;;4.70;99.90;;;;;;5064988;28;20432;-49
2024/01/04 07:04:53;;;;;;;4.75;0.77;;;4.60;99.90;;;;;;5053749;28;20056;-50
2024/01/04 07:07:18;;;;;;;3.63;0.65;;;4.60;99.90;;;;;;5062155;28;20499;-47
2024/01/04 07:09:44;;;;;;;2.88;0.60;;;4.60;99.90;;;;;;5063001;28;20098;-47
2024/01/04 07:12:10;;;;;;;3.45;0.50;;;4.60;99.90;;;;;;5056303;28;20526;-48
2024/01/04 07:14:38;;;;;;;2.22;0.80;;;4.60;99.90;;;;;;5061508;28;20080;-47
2024/01/04 07:17:04;;;;;;;6.13;0.88;;;4.60;99.90;;;;;;5056580;28;20048;-49
2024/01/04 07:19:30;;;;;;;1.38;0.82;;;4.60;99.90;;;;;;5056279;28;20045;-47
2024/01/04 07:21:56;;;;;;;1.42;0.70;;;4.60;99.90;;;;;;5060967;28;20047;-48
2024/01/04 07:24:22;;;;;;;4.95;1.00;;;4.50;99.90;;;;;;5042968;28;20090;-48
2024/01/04 07:26:48;;;;;;;8.93;1.00;;;4.50;99.90;;;;;;5065828;28;20035;-50
2024/01/04 07:29:13;;;;;;;3.30;0.82;;;4.50;99.90;;;;;;5061891;28;20036;-47
2024/01/04 07:31:39;;;;;;;1.95;0.90;;;4.50;99.90;;;;;;5062127;28;20040;-48
2024/01/04 07:34:06;;;;;;;3.28;0.70;;;4.40;99.90;;;;;;5059473;28;20634;-47
2024/01/04 07:36:34;;;;;;;1.50;0.68;;;4.40;99.90;;;;;;5061437;28;20350;-49
2024/01/04 07:39:00;;;;;;;1.67;0.70;;;4.50;99.90;;;;;;5061039;28;20084;-51
2024/01/04 07:41:26;;;;;;;2.40;1.02;;;4.40;99.90;;;;;;5062189;28;20048;-51
2024/01/04 07:43:52;;;;;;;3.05;0.70;;;4.50;99.90;;;;;;5054080;28;20101;-50
2024/01/04 07:46:17;;;;;;;4.75;0.80;;;4.50;99.90;;;;;;5058088;28;20065;-47
2024/01/04 07:48:44;;;;;;;3.28;1.08;;;4.50;99.90;;;;;;5046750;28;20249;-48
2024/01/04 07:51:10;;;;;;;3.58;1.05;;;4.50;99.90;;;;;;5061062;28;20427;-47
2024/01/04 07:53:36;;;;;;;3.78;1.10;;;4.60;99.90;;;;;;5060037;28;20044;-50
2024/01/04 07:56:01;;;;;;;5.72;1.35;;;4.50;99.90;;;;;;5038501;28;20663;-49
2024/01/04 07:58:27;;;;;;;2.55;0.90;;;4.50;99.90;;;;;;5059568;28;20040;-52
2024/01/04 08:00:53;;;;;;;1.15;0.65;;;4.40;99.90;;;;;;5058521;28;20036;-49
2024/01/04 08:03:19;;;;;;;4.45;1.17;;;4.40;99.90;;;;;;5058212;28;20039;-48
2024/01/04 08:05:44;;;;;;;2.80;1.25;;;4.40;99.90;;;;;;5060411;28;20037;-47
2024/01/04 08:08:10;;;;;;;6.30;0.90;;;4.40;99.90;;;;;;5059509;28;20652;-49
2024/01/04 08:10:36;;;;;;;2.17;0.90;;;4.40;99.90;;;;;;5061914;28;20041;-50
2024/01/04 08:13:02;;;;;;;5.43;1.10;;;4.40;99.90;;;;;;5058758;28;20044;-48
2024/01/04 08:15:33;;;;;;;4.55;1.13;;;4.40;99.90;;;;;;5062156;28;20453;-48
2024/01/04 08:18:01;;;;;;;4.07;1.10;;;4.40;99.90;;;;;;5061752;28;20406;-47
2024/01/04 08:20:27;;;;;;;4.63;1.63;;;4.50;99.90;;;;;;5059193;28;20587;-50
2024/01/04 08:22:53;;;;;;;1.75;0.63;;;4.50;99.90;;;;;;5056531;28;20043;-49
2024/01/04 08:25:19;;;;;;;2.75;1.10;;;4.50;99.90;;;;;;5056935;28;20037;-49
2024/01/04 08:27:45;;;;;;;1.80;0.95;;;4.60;99.90;;;;;;5055364;28;20396;-48
2024/01/04 08:30:11;;;;;;;2.67;1.00;;;4.60;99.90;;;;;;5056977;28;20079;-49
2024/01/04 08:32:37;;;;;;;1.75;1.00;;;4.70;99.90;;;;;;5059878;28;20040;-52
2024/01/04 08:35:03;;;;;;;5.00;0.90;;;4.70;99.90;;;;;;5058949;28;20043;-48
2024/01/04 08:37:28;;;;;;;3.13;0.68;;;4.70;99.90;;;;;;5060922;28;20550;-50
2024/01/04 08:39:54;;;;;;;3.28;0.80;;;4.60;99.90;;;;;;5062248;28;20117;-48
2024/01/04 08:42:20;;;;;;;2.67;0.60;;;4.70;99.90;;;;;;5055016;28;20047;-49
2024/01/04 08:44:45;;;;;;;3.75;0.90;;;4.70;99.90;;;;;;5057553;28;20071;-48
2024/01/04 08:47:11;;;;;;;2.42;0.88;;;4.70;99.90;;;;;;5059600;28;21158;-47
2024/01/04 08:49:37;;;;;;;3.55;0.82;;;4.70;99.90;;;;;;5061180;28;20048;-50
2024/01/04 08:52:03;;;;;;;3.17;0.90;;;4.70;99.90;;;;;;5059240;28;20649;-47
2024/01/04 08:54:29;;;;;;;3.63;1.05;;;4.70;99.90;;;;;;5051298;28;20486;-49
2024/01/04 08:56:55;;;;;;;3.60;0.85;;;4.80;99.90;;;;;;5060276;28;20037;-48
2024/01/04 08:59:21;;;;;;;2.65;0.85;;;4.80;99.90;;;;;;5060580;28;20608;-50
2024/01/04 09:01:47;;;;;;;1.70;0.73;;;4.80;99.90;;;;;;5052333;28;20545;-48
2024/01/04 09:04:13;;;;;;;1.52;0.82;;;4.90;99.90;;;;;;5057091;28;20245;-47
2024/01/04 09:06:39;;;;;;;3.28;0.90;;;4.90;99.90;;;;;;5058704;28;20044;-49
2024/01/04 09:09:07;;;;;;;4.57;1.10;;;5.00;99.90;;;;;;5056751;28;20040;-47
2024/01/04 09:11:38;;;;;;;2.80;0.80;;;5.00;99.90;;;;;;5059133;28;20825;-47
2024/01/04 09:14:11;;;;;;;3.80;1.15;;;4.90;99.90;;;;;;5061225;28;20044;-50
2024/01/04 09:16:43;;;;;;;2.78;1.10;;;4.90;99.90;;;;;;5062220;28;20352;-49
2024/01/04 09:19:16;;;;;;;4.22;1.23;;;4.90;99.90;;;;;;5065651;28;20049;-50
2024/01/04 09:21:52;;;;;;;3.15;1.00;;;4.90;99.90;;;;;;5061763;28;20499;-48
2024/01/04 09:24:20;;;;;;;4.78;1.25;;;4.80;99.90;;;;;;5060720;28;20036;-48
2024/01/04 09:26:46;;;;;;;3.53;0.80;;;4.80;99.90;;;;;;5065413;28;20024;-51
2024/01/04 09:29:18;;;;;;;2.33;0.90;;;4.80;99.90;;;;;;5062103;28;20032;-48
2024/01/04 09:31:44;;;;;;;1.70;0.75;;;4.70;99.90;;;;;;5062258;28;20119;-47
2024/01/04 09:34:10;;;;;;;2.03;0.60;;;4.80;99.90;;;;;;5064237;28;20124;-49
2024/01/04 09:36:35;;;;;;;1.60;0.80;;;4.80;99.90;;;;;;5064645;28;20202;-50
2024/01/04 09:39:05;;;;;;;2.97;0.95;;;4.80;99.90;;;;;;5055215;28;20126;-47
2024/01/04 09:41:33;;;;;;;2.83;1.10;;;4.90;99.90;;;;;;5061552;28;20123;-48
2024/01/04 09:44:06;;;;;;;1.58;0.70;;;5.00;99.90;;;;;;5043636;28;20045;-47
2024/01/04 09:46:37;;;;;;;4.00;0.90;;;5.10;99.90;;;;;;5065012;28;20039;-47
2024/01/04 09:49:04;;;;;;;2.28;1.23;;;5.10;99.90;;;;;;5064172;28;20036;-47
2024/01/04 09:51:34;;;;;;;3.70;1.00;;;5.20;99.90;;;;;;5055259;28;20053;-48
2024/01/04 09:54:03;;;;;;;3.20;0.65;;;5.30;99.90;;;;;;5064561;28;20279;-49
2024/01/04 09:56:30;;;;;;;3.58;0.60;;;5.40;99.90;;;;;;5065717;28;20051;-47
2024/01/04 09:58:56;;;;;;;3.33;0.70;;;5.50;99.90;;;;;;5062960;28;20040;-48
2024/01/04 10:01:35;;;;;;;1.92;0.70;;;5.60;99.90;;;;;;5060879;28;20585;-50
2024/01/04 10:04:13;;;;;;;3.90;0.77;;;5.60;99.90;;;;;;5060094;28;20526;-49
2024/01/04 10:06:43;;;;;;;2.83;0.70;;;5.70;99.90;;;;;;5056771;28;20120;-48
2024/01/04 10:09:18;;;;;;;6.50;1.05;;;5.80;99.90;;;;;;5064773;28;20052;-50
2024/01/04 10:12:08;;;;;;;3.22;0.68;;;5.80;99.90;;;;;;5052286;28;20053;-49
2024/01/04 10:14:34;;;;;;;2.05;0.60;;;5.80;99.90;;;;;;5061182;28;20525;-48
2024/01/04 10:17:00;;;;;;;2.58;0.75;;;5.90;99.90;;;;;;5064635;28;20078;-48
2024/01/04 10:19:27;;;;;;;5.38;0.60;;;5.80;99.90;;;;;;5060867;28;20391;-48
2024/01/04 10:21:53;;;;;;;3.25;0.60;;;5.80;99.90;;;;;;5061309;28;20044;-49
2024/01/04 10:24:25;;;;;;;2.60;0.70;;;5.90;99.90;;;;;;5061765;28;20380;-47
2024/01/04 10:26:58;;;;;;;2.00;0.40;;;6.10;99.90;;;;;;5063192;28;20137;-49
2024/01/04 10:29:28;;;;;;;2.30;0.70;;;6.10;99.90;;;;;;5061207;28;20047;-48
2024/01/04 10:32:03;;;;;;;3.58;0.88;;;6.10;99.90;;;;;;5059919;28;20045;-50
2024/01/04 10:34:29;;;;;;;2.28;0.70;;;6.10;99.90;;;;;;5063914;28;20036;-49
2024/01/04 10:37:14;;;;;;;1.95;0.70;;;6.20;99.90;;;;;;5057632;28;20503;-48
2024/01/04 10:39:43;;;;;;;4.28;0.70;;;6.20;99.90;;;;;;5055075;28;20077;-49
2024/01/04 10:42:09;;;;;;;1.85;0.77;;;6.10;99.90;;;;;;5062666;28;20040;-51
2024/01/04 10:44:35;;;;;;;1.60;0.60;;;6.10;99.90;;;;;;5061292;28;20047;-47
2024/01/04 10:47:03;;;;;;;2.10;0.70;;;6.10;99.90;;;;;;5057132;28;20367;-47
2024/01/04 10:49:29;;;;;;;1.35;0.57;;;6.10;99.90;;;;;;5059002;28;20048;-48
2024/01/04 10:51:57;;;;;;;3.50;0.90;;;6.10;99.90;;;;;;5063761;28;20093;-47
2024/01/04 10:54:33;;;;;;;1.85;0.63;;;6.00;99.90;;;;;;5064759;28;20087;-49
2024/01/04 10:57:01;;;;;;;0.60;0.47;;;6.00;99.90;;;;;;5061308;28;20560;-48
2024/01/04 10:59:28;;;;;;;4.15;1.20;;;6.00;99.90;;;;;;5059897;28;20690;-47
2024/01/04 11:01:55;;;;;;;2.22;0.60;;;6.00;99.90;;;;;;5060668;28;20097;-51
2024/01/04 11:04:21;;;;;;;2.53;0.80;;;6.00;99.90;;;;;;5061929;28;20777;-49
2024/01/04 11:06:49;;;;;;;1.75;0.55;;;6.10;99.90;;;;;;5045715;28;20036;-48
2024/01/04 11:09:18;;;;;;;3.17;0.75;;;6.20;99.90;;;;;;5059160;28;20047;-48
2024/01/04 11:11:45;;;;;;;1.70;0.90;;;6.20;99.90;;;;;;5062815;28;20039;-49
2024/01/04 11:14:11;;;;;;;3.40;0.65;;;6.20;99.90;;;;;;5061648;28;20067;-49
2024/01/04 11:16:45;;;;;;;5.40;1.40;;;6.20;99.90;;;;;;5060188;28;20036;-49
2024/01/04 11:19:43;;;;;;;2.88;0.60;;;6.20;99.90;;;;;;5059160;28;20040;-48
2024/01/04 11:22:45;;;;;;;5.05;0.85;;;6.20;99.90;;;;;;5044594;28;20113;-48
2024/01/04 11:25:22;;;;;;;4.72;1.20;;;6.20;99.90;;;;;;5056636;28;20032;-49
2024/01/04 11:27:49;;;;;;;3.90;1.20;;;6.40;99.90;;;;;;5062178;28;20068;-50
2024/01/04 11:30:16;;;;;;;5.15;1.35;;;6.50;99.90;;;;;;5060864;28;20044;-51
2024/01/04 11:32:44;;;;;;;4.30;1.00;;;6.50;99.90;;;;;;5062590;28;20051;-50
2024/01/04 11:35:13;;;;;;;3.92;0.85;;;6.60;99.90;;;;;;5059874;28;20128;-49
2024/01/04 11:37:38;;;;;;;2.00;0.80;;;6.60;99.90;;;;;;5061253;28;20051;-48
2024/01/04 11:40:07;;;;;;;1.80;0.70;;;6.50;99.90;;;;;;5058294;28;20040;-51
2024/01/04 11:42:40;;;;;;;0.93;0.50;;;6.50;99.90;;;;;;5061037;28;20037;-47
2024/01/04 11:45:17;;;;;;;2.30;0.80;;;6.40;99.90;;;;;;5060022;28;20036;-48
2024/01/04 11:47:48;;;;;;;2.65;0.68;;;6.50;99.90;;;;;;5062282;28;20461;-48
2024/01/04 11:50:15;;;;;;;3.40;0.70;;;6.40;99.90;;;;;;5059287;28;20039;-48
2024/01/04 11:52:41;;;;;;;1.98;0.57;;;6.40;99.90;;;;;;5062383;28;20041;-47
2024/01/04 11:55:07;;;;;;;1.52;0.80;;;6.40;99.90;;;;;;5048366;28;20126;-50
2024/01/04 11:57:33;;;;;;;2.13;0.70;;;6.40;99.90;;;;;;5061922;28;20129;-49
2024/01/04 11:59:59;;;;;;;2.90;0.55;;;6.50;99.90;;;;;;5056604;28;20116;-49
2024/01/04 12:02:25;;;;;;;3.63;0.60;;;6.60;99.90;;;;;;5059058;28;20466;-48
2024/01/04 12:04:51;;;;;;;2.60;0.60;;;6.70;99.90;;;;;;5061726;28;20024;-51
2024/01/04 12:07:17;;;;;;;2.33;0.70;;;6.70;99.90;;;;;;5059140;28;20388;-47
2024/01/04 12:09:43;;;;;;;5.38;1.02;;;6.80;99.90;;;;;;5059830;28;20093;-49
2024/01/04 12:12:09;;;;;;;2.95;0.95;;;6.80;99.90;;;;;;5061253;28;20478;-51
2024/01/04 12:14:35;;;;;;;1.60;0.90;;;6.80;99.90;;;;;;5060076;28;20036;-48
2024/01/04 12:17:02;;;;;;;3.80;0.90;;;6.90;99.90;;;;;;5062774;28;20044;-49
2024/01/04 12:19:28;;;;;;;6.95;0.98;;;6.90;99.90;;;;;;5055182;28;20487;-49
2024/01/04 12:21:55;;;;;;;1.67;0.80;;;7.00;99.90;;;;;;5060338;28;20040;-47
2024/01/04 12:24:21;;;;;;;5.22;1.00;;;7.00;99.90;;;;;;5060174;28;20036;-49
2024/01/04 12:26:48;;;;;;;2.55;0.70;;;7.10;99.90;;;;;;5057181;28;20503;-49
2024/01/04 12:29:14;;;;;;;7.32;0.60;;;7.00;99.90;;;;;;5055895;28;20604;-49
2024/01/04 12:31:40;;;;;;;1.88;0.80;;;7.10;99.90;;;;;;5058719;28;20051;-49
2024/01/04 12:34:12;;;;;;;4.18;0.80;;;7.10;99.90;;;;;;5061668;28;20060;-48
2024/01/04 12:36:38;;;;;;;2.85;0.80;;;7.10;99.90;;;;;;5056693;28;20043;-47
2024/01/04 12:39:14;;;;;;;2.00;0.73;;;7.10;99.90;;;;;;5060804;28;20048;-47
2024/01/04 12:41:44;;;;;;;3.33;0.90;;;7.10;99.90;;;;;;5057402;28;20040;-49
2024/01/04 12:44:11;;;;;;;3.47;1.20;;;7.10;99.90;;;;;;5055984;28;20048;-47
2024/01/04 12:46:37;;;;;;;0.95;0.80;;;7.10;99.90;;;;;;5058354;28;20048;-49
2024/01/04 12:49:10;;;;;;;3.17;0.73;;;7.10;99.90;;;;;;5058631;28;20040;-50
2024/01/04 12:51:39;;;;;;;1.98;0.95;;;7.10;99.90;;;;;;5060329;28;20036;-47
2024/01/04 12:54:05;;;;;;;3.92;0.95;;;6.90;99.90;;;;;;5057292;28;20051;-50
2024/01/04 12:56:34;;;;;;;2.78;0.80;;;7.00;99.90;;;;;;5057857;28;20123;-47